Tiempo atmosférico en la estación meteorológica de Chelva, València/Valencia (546 m.)



Fecha
DESCASC
Temp. máxima en grados centígrados (hora)
DESCASC
Temp. mínima en grados centígrados (hora)
DESCASC
Temp. media en grados centígrados
DESCASC
Racha de viento máxima en m/sg (hora)
DESCASC
Velocidad máxima media en intervalos de 10 minutos(hora)
DESCASC
Precipitaciones diarias en mm
DESCASC
Precipitaciones de 00:00 a 06:00 en mm
DESCASC
Precipitaciones de 06:00 a 12:00 en mm
DESCASC
Precipitaciones de 12:00 a 18:00 en mm
DESCASC
Precipitaciones de 18:00 a 24:00 en mm
DESCASC
25-01-2020 12.4 (14:50) 7.5 (00:00) 9.9 8.33 (16:30) 3.89 (15:20) 8 0.8 0.2 4.4 2.6
20-01-2020 8.6 (15:00) 1.5 (00:00) 5.1 22.22 (14:00) 12.5 (13:30) 1.6 0 0.4 0 1.2
21-01-2020 7.7 (07:20) 2.7 (00:00) 5.2 18.89 (00:10) 7.78 (05:20) 53.2 4.4 22.2 25.8 0.8
23-01-2020 11.9 (12:50) 1.4 (00:00) 6.6 4.72 (19:20) 2.78 (19:20) 0.8 0.2 0 0 0.6
19-01-2020 10.9 (00:00) 3.8 (00:00) 7.3 9.17 (21:50) 3.89 (03:10) 18.4 0 8.6 9.4 0.4
11-01-2020 -- (--) -- (--) -- -- (--) -- (--) 0 0 0 0 0
24-01-2020 13.5 (16:40) 6.6 (00:00) 10 3.89 (19:00) 2.22 (18:30) 0.2 0.2 0 0 0
22-01-2020 9.5 (12:00) 3.5 (00:00) 6.5 7.78 (02:40) 3.89 (02:40) 10 5.4 0.4 4.2 0
18-01-2020 13.3 (14:30) 5.6 (00:00) 9.5 10 (15:40) 6.11 (15:40) 0 0 0 0 0
17-01-2020 15.5 (16:10) 4.4 (00:00) 10 13.06 (12:40) 7.22 (12:40) 0 0 0 0 0
16-01-2020 18.8 (15:10) 5.3 (00:00) 12 6.39 (15:50) 3.61 (02:40) 0 0 0 0 0
15-01-2020 16.7 (14:30) 5.4 (00:00) 11.1 11.94 (14:40) 6.11 (14:50) 0 0 0 0 0
14-01-2020 17.1 (16:30) -0.7 (-00:0) 8.2 7.22 (03:00) 4.44 (03:00) 0 0 0 0 0
13-01-2020 15.9 (14:10) 1 (00:00) 8.4 8.89 (21:10) 5.28 (21:20) 0 0 0 0 0
12-01-2020 15.6 (15:00) -1 (07:40) 7.3 6.11 (16:00) 3.33 (15:50) 0 0 0 0 0
27-12-2019 19.8 (15:00) 4.1 (00:00) 11.9 6.11 (22:00) 4.17 (06:40) 0 0 0 0 0
10-01-2020 13.7 (13:20) 4.6 (00:00) 9.1 14.44 (11:20) 7.22 (11:50) 0 0 0 0 0
09-01-2020 15.2 (14:30) 2 (00:00) 8.6 6.67 (09:40) 3.61 (09:40) 0 0 0 0 0
08-01-2020 14.5 (11:20) 3.7 (00:00) 9.1 7.78 (13:30) 4.17 (13:30) 0 0 0 0 0
07-01-2020 18.1 (15:20) 1.6 (00:00) 9.9 5.28 (08:40) 2.5 (09:40) 0 0 0 0 0
06-01-2020 15.7 (14:00) 0.9 (00:00) 8.3 5.83 (15:30) 3.33 (16:00) 0 0 0 0 0
05-01-2020 20 (15:10) 1.7 (00:00) 10.9 4.72 (08:30) 3.06 (07:20) 0 0 0 0 0
04-01-2020 15.2 (16:30) 2.9 (00:00) 9 6.39 (15:00) 3.33 (14:40) 0 0 0 0 0
03-01-2020 16.7 (12:50) 2.6 (00:00) 9.7 6.39 (03:50) 4.17 (10:00) 0 0 0 0 0
02-01-2020 15 (15:10) -0.2 (00:00) 7.4 4.72 (00:10) 2.5 (16:00) 0 0 0 0 0
01-01-2020 15.9 (15:10) 1.4 (00:00) 8.6 5.28 (16:20) 3.33 (07:50) 0 0 0 0 0
31-12-2019 13.7 (16:10) 0.5 (00:00) 7.1 2.78 (01:40) 1.67 (07:30) 0 0 0 0 0
30-12-2019 13.9 (16:20) -0.4 (00:00) 6.7 -- (--) -- (--) 0 0 0 0 0
29-12-2019 15.4 (15:40) 0.1 (00:00) 7.7 3.89 (16:10) 2.22 (17:20) 0 0 0 0 0
28-12-2019 16.2 (15:00) 1.3 (00:00) 8.8 5 (08:50) 2.78 (08:50) 0 0 0 0 0

Gráficas

Temp. máximas Temp. mínimas Temp. medias Precipitaciones Rachas de viento máximas Velocidades máximas media en intervalos de 10 minutos

Datos horarios

Fecha y hora oficial Temperatura (ºC) Velocidad del viento (km/h) Dirección del viento Racha (km/h) Dirección de racha Precipitación (mm) Presión (hPa) Tendencia (hPa) Humedad (%)
2020-01-25 23:00:00 7.8 0 Calma 4 Noroeste 0 -- -- 96
2020-01-25 22:00:00 7.8 2 Este 10 Norte 0 -- -- 96
2020-01-25 21:00:00 7.9 5 Noroeste 10 Norte 0.4 -- -- 96
2020-01-25 20:00:00 7.8 3 Noroeste 8 Este 0.2 -- -- 96
2020-01-25 19:00:00 8 3 Nordeste 10 Sudeste 2 -- -- 95
2020-01-25 18:00:00 9.2 8 Sudeste 18 Sudeste 3 -- -- 94
2020-01-25 17:00:00 9.5 10 Sudeste 30 Sudeste 1.4 -- -- 91
2020-01-25 16:00:00 10.4 9 Sudeste 27 Sudeste 0 -- -- 86
2020-01-25 15:00:00 11.7 11 Sur 20 Sur 0 -- -- 80
2020-01-25 14:00:00 10.8 6 Sudeste 17 Sudeste 0 -- -- 86
2020-01-25 13:00:00 10.1 5 Sudeste 11 Sur 0 -- -- 90
2020-01-25 12:00:00 9.8 4 Sur 9 Sudeste 0 -- -- 92
2020-01-25 11:00:00 8.9 4 Sudoeste 6 Sur 0 -- -- 95
2020-01-25 10:00:00 8.1 0 Calma 4 Oeste 0 -- -- 97
2020-01-25 09:00:00 7.8 2 Nordeste 6 Nordeste 0.2 -- -- 97
2020-01-25 08:00:00 7.6 3 Este 4 Este 0 -- -- 97
2020-01-25 07:00:00 7.6 0 Calma 3 Oeste 0 -- -- 97
2020-01-25 06:00:00 7.7 0 Calma 4 Oeste 0 -- -- 97
2020-01-25 05:00:00 7.7 3 Noroeste 4 Noroeste 0 -- -- 96
2020-01-25 04:00:00 7.8 0 Calma 8 Sudeste 0 -- -- 96
2020-01-25 03:00:00 7.8 8 Este 15 Nordeste 0.6 -- -- 96
2020-01-25 02:00:00 8.1 2 Este 4 Este 0.2 -- -- 95
2020-01-25 01:00:00 8.1 0 Calma 3 Este 0 -- -- 94
2020-01-25 00:00:00 8.2 0 Calma 4 Este 0 -- -- 93
2020-01-24 23:00:00 8.3 0 Calma 4 Sur 0 -- -- 93
2020-01-24 22:00:00 8.5 4 Sur 8 Sudeste 0 -- -- 92
2020-01-24 21:00:00 8.5 2 Sudeste 8 Sudeste 0 -- -- 91
2020-01-24 20:00:00 8.8 3 Sudeste 10 Sudeste 0 -- -- 89
2020-01-24 19:00:00 9.3 7 Sudeste 14 Sudeste 0 -- -- 87
2020-01-24 18:00:00 9.9 4 Sudeste 6 Sudeste 0 -- -- 81
2020-01-24 17:00:00 11.1 5 Sudoeste 9 Sudoeste 0 -- -- 72
2020-01-24 16:00:00 11.9 0 Calma 8 Sudeste 0 -- -- 76
2020-01-24 15:00:00 10.6 3 Sur 5 Sur 0 -- -- 80
2020-01-24 14:00:00 9.8 4 Sur 10 Sudoeste 0 -- -- 82
2020-01-24 13:00:00 9.6 3 Oeste 6 Oeste 0 -- -- 90
2020-01-24 12:00:00 9 0 Calma 4 Oeste 0 -- -- 94
2020-01-24 11:00:00 8.5 3 Sudoeste 6 Sudoeste 0 -- -- 96
2020-01-24 10:00:00 7.6 0 Calma 4 Este 0 -- -- 96
2020-01-24 09:00:00 6.8 0 Calma 4 Sudoeste 0 -- -- 97
2020-01-24 08:00:00 6.8 5 Norte 9 Norte 0 -- -- 97
2020-01-24 07:00:00 6.8 3 Noroeste 4 Este 0 -- -- 97
2020-01-24 06:00:00 7.2 0 Calma 3 Nordeste 0 -- -- 97
2020-01-24 05:00:00 7.3 0 Calma 3 Norte 0 -- -- 97
2020-01-24 04:00:00 7.4 0 Calma 6 Este 0 -- -- 97
2020-01-24 03:00:00 7.5 5 Sudeste 12 Este 0 -- -- 96
2020-01-24 02:00:00 7.7 4 Este 10 Este 0.2 -- -- 96
2020-01-24 01:00:00 7.7 5 Nordeste 7 Nordeste 0 -- -- 96
2020-01-24 00:00:00 7.7 0 Calma 5 Nordeste 0 -- -- 96
2020-01-23 23:00:00 7.6 2 Nordeste 5 Sur 0.6 -- -- 96
2020-01-23 22:00:00 7.7 3 Sudeste 10 Sudeste 0 -- -- 95
2020-01-23 21:00:00 7.9 4 Este 12 Sudeste 0 -- -- 93
2020-01-23 20:00:00 8.1 5 Sudeste 17 Este 0 -- -- 90
2020-01-23 19:00:00 8.2 7 Sudeste 14 Sudeste 0 -- -- 90
2020-01-23 18:00:00 8.3 8 Sudeste 15 Sudeste 0 -- -- 88
2020-01-23 17:00:00 8.9 6 Sudeste 13 Sur 0 -- -- 83
2020-01-23 16:00:00 9.3 6 Sudeste 13 Sudeste 0 -- -- 81
2020-01-23 15:00:00 9.3 8 Sudeste 15 Sur 0 -- -- 76
2020-01-23 14:00:00 9.7 6 Sur 13 Sur 0 -- -- 74
2020-01-23 13:00:00 11.9 3 Sudeste 7 Sudoeste 0 -- -- 63
2020-01-23 12:00:00 9.1 5 Sudoeste 9 Noroeste 0 -- -- 73
2020-01-23 11:00:00 6.9 6 Noroeste 13 Noroeste 0 -- -- 79
2020-01-23 10:00:00 5 3 Noroeste 10 Noroeste 0 -- -- 85
2020-01-23 09:00:00 2 4 Noroeste 9 Noroeste 0 -- -- 94
2020-01-23 08:00:00 1.7 2 Noroeste 13 Oeste 0 -- -- 92
2020-01-23 07:00:00 1.6 4 Norte 11 Noroeste 0 -- -- 93
2020-01-23 06:00:00 1.6 0 Calma 7 Nordeste 0 -- -- 93
2020-01-23 05:00:00 2.9 6 Noroeste 14 Noroeste 0 -- -- 91
2020-01-23 04:00:00 2.3 3 Norte 5 Norte 0 -- -- 94
2020-01-23 03:00:00 2.2 0 Calma 7 Norte 0.2 -- -- 93
2020-01-23 02:00:00 3.2 5 Oeste 14 Noroeste 0 -- -- 92
2020-01-23 01:00:00 3.1 3 Noroeste 8 Oeste 0 -- -- 94
2020-01-23 00:00:00 3.8 4 Oeste 8 Oeste 0 -- -- 93
2020-01-22 23:00:00 4.2 3 Oeste 13 Noroeste 0 -- -- 91
2020-01-22 22:00:00 5 6 Noroeste 11 Noroeste 0 -- -- 92
2020-01-22 21:00:00 5.3 3 Oeste 20 Oeste 0 -- -- 92
2020-01-22 20:00:00 5.4 8 Oeste 15 Noroeste 0 -- -- 95
2020-01-22 19:00:00 5.9 3 Noroeste 5 Sudeste 0 -- -- 95
2020-01-22 18:00:00 6.9 0 Calma 11 Norte 0 -- -- 93
2020-01-22 17:00:00 6.7 6 Norte 18 Sudeste 0.6 -- -- 93
2020-01-22 16:00:00 6.8 7 Noroeste 15 Sur 2.8 -- -- 92
2020-01-22 15:00:00 7.4 6 Oeste 15 Oeste 0.8 -- -- 90
2020-01-22 14:00:00 8.7 5 Noroeste 10 Noroeste 0 -- -- 83
2020-01-22 13:00:00 8.9 4 Oeste 10 Noroeste 0 -- -- 84
2020-01-22 12:00:00 9.5 7 Noroeste 12 Noroeste 0 -- -- 86
2020-01-22 11:00:00 7 3 Noroeste 10 Sudoeste 0.2 -- -- 94
2020-01-22 10:00:00 5.4 6 Sudoeste 12 Oeste 0.2 -- -- 95
2020-01-22 09:00:00 4.8 5 Oeste 9 Oeste 0 -- -- 94
2020-01-22 08:00:00 5.4 0 Calma 9 Sudoeste 0 -- -- 94
2020-01-22 07:00:00 6.2 3 Noroeste 8 Oeste 0 -- -- 92
2020-01-22 06:00:00 6.7 3 Oeste 16 Este 0 -- -- 89
2020-01-22 05:00:00 7.3 9 Este 19 Este 0.2 -- -- 90
2020-01-22 04:00:00 7.4 10 Este 22 Este 0.4 -- -- 91
2020-01-22 03:00:00 7.6 12 Este 28 Este 0.8 -- -- 93
2020-01-22 02:00:00 7 5 Nordeste 13 Este 3.6 -- -- 95
2020-01-22 01:00:00 5.9 4 Noroeste 8 Oeste 0.4 -- -- 95
2020-01-22 00:00:00 5.6 4 Norte 10 Oeste 0 -- -- 95
2020-01-21 23:00:00 5.2 4 Oeste 13 Oeste 0 -- -- 94
2020-01-21 22:00:00 5 8 Norte 19 Sur 0.2 -- -- 95
2020-01-21 21:00:00 5 4 Noroeste 14 Norte 0.2 -- -- 95
2020-01-21 20:00:00 4.6 3 Noroeste 10 Nordeste 0 -- -- 96
2020-01-21 19:00:00 4.1 4 Sur 10 Sudoeste 0.4 -- -- 95
2020-01-21 18:00:00 4 3 Norte 13 Oeste 1.8 -- -- 94
2020-01-21 17:00:00 4.2 5 Oeste 41 Noroeste 4.2 -- -- 93
2020-01-21 16:00:00 3.7 14 Noroeste 23 Noroeste 5 -- -- 95
2020-01-21 15:00:00 2.7 8 Noroeste 29 Sudoeste 3.4 -- -- 94
2020-01-21 14:00:00 3.3 14 Oeste 33 Norte 6.4 -- -- 90
2020-01-21 13:00:00 4.8 8 Nordeste 28 Nordeste 5 -- -- 89
2020-01-21 12:00:00 5.1 15 Nordeste 50 Este 7.8 -- -- 89
2020-01-21 11:00:00 6.9 21 Nordeste 37 Nordeste 3 -- -- 80
2020-01-21 10:00:00 5.8 8 Nordeste 26 Nordeste 3.6 -- -- 82
2020-01-21 09:00:00 5.9 11 Nordeste 46 Este 5.8 -- -- 85
2020-01-21 08:00:00 6.6 20 Nordeste 51 Nordeste 1.8 -- -- 80
2020-01-21 07:00:00 7.6 27 Nordeste 48 Este 0.2 -- -- 72
2020-01-21 06:00:00 6.7 23 Nordeste 59 Nordeste 1.2 -- -- 77
2020-01-21 05:00:00 6.5 23 Nordeste 54 Nordeste 0.6 -- -- 75
2020-01-21 04:00:00 6.5 27 Nordeste 51 Nordeste 0 -- -- 73
2020-01-21 03:00:00 6.6 22 Nordeste 51 Este 2 -- -- 73
2020-01-21 02:00:00 -- 20 Nordeste 47 Nordeste 0.2 -- -- --
2020-01-21 01:00:00 6.9 15 Nordeste 68 Este 0.4 -- -- 74
2020-01-21 00:00:00 6.4 25 Nordeste 75 Este 0 -- -- 75
2020-01-20 23:00:00 7 31 Nordeste 79 Nordeste 0 -- -- 69
2020-01-20 22:00:00 6.3 19 Nordeste 55 Nordeste 0 -- -- 73
2020-01-20 21:00:00 6.7 28 Nordeste 58 Norte 0.8 -- -- 74
2020-01-20 20:00:00 6.5 20 Este 61 Este 0.2 -- -- 76
2020-01-20 19:00:00 6.8 32 Nordeste 70 Nordeste 0.2 -- -- 73
2020-01-20 18:00:00 7.1 36 Nordeste 69 Nordeste 0 -- -- 69
2020-01-20 17:00:00 7.6 31 Nordeste 75 Nordeste 0 -- -- 66
2020-01-20 16:00:00 7.8 35 Nordeste 80 Este 0 -- -- 65
2020-01-20 15:00:00 8.6 24 Este 72 Nordeste 0 -- -- 61
2020-01-20 14:00:00 7.4 42 Nordeste 80 Este 0 -- -- 66
2020-01-20 13:00:00 7.2 30 Este 76 Este 0 -- -- 66
2020-01-20 12:00:00 7.6 27 Este 63 Este 0 -- -- 63
2020-01-20 11:00:00 7.1 24 Este 67 Nordeste 0 -- -- 64
2020-01-20 10:00:00 5.2 13 Noroeste 32 Sudoeste 0 -- -- 71
2020-01-20 09:00:00 2.5 6 Noroeste 19 Oeste 0 -- -- 84
2020-01-20 08:00:00 1.7 10 Sudoeste 23 Noroeste 0.2 -- -- 86
2020-01-20 07:00:00 2 14 Noroeste 21 Noroeste 0.2 -- -- 85
2020-01-20 06:00:00 3 9 Oeste 24 Oeste 0 -- -- 76
2020-01-20 05:00:00 2.5 12 Oeste 23 Noroeste 0 -- -- 77
2020-01-20 04:00:00 3.8 7 Sudoeste 31 Nordeste 0 -- -- 68
2020-01-20 03:00:00 5 5 Norte 19 Sudoeste 0 -- -- 60
2020-01-20 02:00:00 5.2 5 Sudeste 15 Nordeste 0 -- -- 58
2020-01-20 01:00:00 3.8 2 Noroeste 14 Noroeste 0 -- -- 70
2020-01-20 00:00:00 4.7 8 Noroeste 20 Norte 0 -- -- 61
2020-01-19 23:00:00 4.7 10 Noroeste 19 Oeste 0 -- -- 67
2020-01-19 22:00:00 5.4 8 Noroeste 33 Nordeste 0.2 -- -- 68
2020-01-19 21:00:00 3.9 5 Noroeste 9 Noroeste 0 -- -- 95
2020-01-19 20:00:00 3.9 6 Noroeste 13 Noroeste 0 -- -- 95
2020-01-19 19:00:00 4.1 2 Noroeste 6 Oeste 0.2 -- -- 95
2020-01-19 18:00:00 3.9 2 Noroeste 6 Noroeste 1.2 -- -- 95
2020-01-19 17:00:00 4.2 3 Este 11 Sudeste 0.8 -- -- 94
2020-01-19 16:00:00 4.5 6 Sudeste 9 Sudeste 1.6 -- -- 94
2020-01-19 15:00:00 4.7 3 Sudeste 10 Este 3.8 -- -- 93
2020-01-19 14:00:00 4.8 0 Calma 10 Oeste 1.6 -- -- 93
2020-01-19 13:00:00 4.6 3 Norte 8 Sudeste 0.4 -- -- 91
2020-01-19 12:00:00 4.3 0 Calma 14 Noroeste 1.6 -- -- 91
2020-01-19 11:00:00 4 4 Noroeste 23 Este 7 -- -- 87
2020-01-19 10:00:00 7.6 8 Este 22 Este 0 -- -- 63
2020-01-19 09:00:00 7.5 8 Noroeste 15 Noroeste 0 -- -- 60
2020-01-19 08:00:00 7.5 10 Noroeste 17 Noroeste 0 -- -- 60
2020-01-19 07:00:00 8 7 Noroeste 25 Oeste 0 -- -- 59
2020-01-19 06:00:00 8.3 12 Oeste 22 Oeste 0 -- -- 57
2020-01-19 05:00:00 9 13 Noroeste 25 Noroeste 0 -- -- 60
2020-01-19 04:00:00 9.2 7 Noroeste 23 Noroeste 0 -- -- 64
2020-01-19 03:00:00 9.9 10 Noroeste 22 Noroeste 0 -- -- 64
2020-01-19 02:00:00 10.4 8 Noroeste 17 Noroeste 0 -- -- 77
2020-01-19 01:00:00 10 3 Noroeste 9 Noroeste 0 -- -- 80
2020-01-19 00:00:00 10.9 5 Noroeste 13 Sudoeste 0 -- -- 77
2020-01-18 23:00:00 11.2 9 Noroeste 24 Norte 0 -- -- 76
2020-01-18 22:00:00 10.8 14 Noroeste 27 Noroeste 0 -- -- 80
2020-01-18 21:00:00 10.9 8 Noroeste 23 Noroeste 0 -- -- 77
2020-01-18 20:00:00 11.1 15 Noroeste 27 Noroeste 0 -- -- 76
2020-01-18 19:00:00 11.2 13 Noroeste 32 Noroeste 0 -- -- 74
2020-01-18 18:00:00 11.5 16 Noroeste 30 Oeste 0 -- -- 71
2020-01-18 17:00:00 11.9 14 Noroeste 30 Noroeste 0 -- -- 66
2020-01-18 16:00:00 13.1 19 Noroeste 36 Oeste 0 -- -- 60
2020-01-18 15:00:00 13.1 15 Noroeste 36 Oeste 0 -- -- 58
2020-01-18 14:00:00 12.4 9 Noroeste 26 Oeste 0 -- -- 59
2020-01-18 13:00:00 11.7 8 Oeste 16 Noroeste 0 -- -- 60
2020-01-18 12:00:00 11.2 8 Oeste 18 Noroeste 0 -- -- 62
2020-01-18 11:00:00 10 9 Noroeste 22 Noroeste 0 -- -- 65
2020-01-18 10:00:00 8.3 7 Oeste 13 Noroeste 0 -- -- 66
2020-01-18 09:00:00 7.6 12 Noroeste 21 Noroeste 0 -- -- 64
2020-01-18 08:00:00 6.7 6 Oeste 15 Oeste 0 -- -- 66
2020-01-18 07:00:00 6.4 6 Oeste 22 Oeste 0 -- -- 64
2020-01-18 06:00:00 5.9 3 Norte 10 Nordeste 0 -- -- 64
2020-01-18 05:00:00 5.6 4 Norte 9 Nordeste 0 -- -- 67
2020-01-18 04:00:00 6.4 3 Sudeste 14 Nordeste 0 -- -- 63
2020-01-18 03:00:00 7.6 9 Noroeste 19 Oeste 0 -- -- 58
2020-01-18 02:00:00 7.8 5 Noroeste 17 Noroeste 0 -- -- 58
2020-01-18 01:00:00 8.2 6 Norte 23 Noroeste 0 -- -- 57
2020-01-18 00:00:00 8.8 17 Noroeste 27 Noroeste 0 -- -- 56
2020-01-17 23:00:00 9.1 10 Noroeste 18 Noroeste 0 -- -- 57
2020-01-17 22:00:00 9.7 10 Noroeste 16 Noroeste 0 -- -- 55
2020-01-17 21:00:00 9.9 8 Noroeste 21 Noroeste 0 -- -- 54
2020-01-17 20:00:00 11 13 Noroeste 21 Noroeste 0 -- -- 52
2020-01-17 19:00:00 11.6 9 Noroeste 39 Noroeste 0 -- -- 50
2020-01-17 18:00:00 13.4 19 Noroeste 36 Oeste 0 -- -- 44
2020-01-17 17:00:00 15 17 Noroeste 35 Noroeste 0 -- -- 43
2020-01-17 16:00:00 15.2 18 Noroeste 35 Oeste 0 -- -- 44
2020-01-17 15:00:00 14.8 15 Oeste 36 Oeste 0 -- -- 47
2020-01-17 14:00:00 14 23 Noroeste 43 Oeste 0 -- -- 48
2020-01-17 13:00:00 13.9 23 Noroeste 47 Oeste 0 -- -- 48
2020-01-17 12:00:00 12.6 21 Noroeste 38 Noroeste 0 -- -- 51
2020-01-17 11:00:00 11.7 19 Noroeste 37 Noroeste 0 -- -- 54
2020-01-17 10:00:00 11.3 17 Noroeste 35 Noroeste 0 -- -- 54
2020-01-17 09:00:00 10.3 6 Noroeste 28 Noroeste 0 -- -- 56
2020-01-17 08:00:00 8.3 6 Norte 14 Oeste 0 -- -- 56
2020-01-17 07:00:00 9.2 9 Noroeste 18 Noroeste 0 -- -- 54
2020-01-17 06:00:00 8.4 8 Noroeste 21 Oeste 0 -- -- 55
2020-01-17 05:00:00 8.3 9 Noroeste 24 Oeste 0 -- -- 56
2020-01-17 04:00:00 8.4 10 Oeste 23 Noroeste 0 -- -- 57
2020-01-17 03:00:00 6.2 10 Noroeste 21 Noroeste 0 -- -- 72
2020-01-17 02:00:00 5 2 Nordeste 6 Oeste 0 -- -- 79
2020-01-17 01:00:00 6 2 Norte 11 Noroeste 0 -- -- 78
2020-01-17 00:00:00 6.1 3 Nordeste 8 Nordeste 0 -- -- 79
2020-01-16 23:00:00 6.6 2 Noroeste 7 Oeste 0 -- -- 80
2020-01-16 22:00:00 7.1 0 Calma 8 Nordeste 0 -- -- 79
2020-01-16 21:00:00 8.3 0 Calma 8 Nordeste 0 -- -- 76
2020-01-16 20:00:00 10.1 0 Calma 10 Sudeste 0 -- -- 69
2020-01-16 19:00:00 12.4 2 Noroeste 7 Oeste 0 -- -- 59
2020-01-16 18:00:00 15.4 2 Sudoeste 16 Oeste 0 -- -- 49
2020-01-16 17:00:00 17.4 11 Oeste 21 Sudoeste 0 -- -- 44
2020-01-16 16:00:00 17.8 10 Oeste 23 Sudoeste 0 -- -- 43
2020-01-16 15:00:00 18.1 4 Sur 12 Sudeste 0 -- -- 45
2020-01-16 14:00:00 17.2 8 Sudeste 14 Sur 0 -- -- 47
2020-01-16 13:00:00 16.9 5 Sur 10 Sudeste 0 -- -- 48
2020-01-16 12:00:00 15.9 0 Calma 8 Sur 0 -- -- 50
2020-01-16 11:00:00 12.5 4 Noroeste 9 Noroeste 0 -- -- 57
2020-01-16 10:00:00 8.6 9 Noroeste 15 Noroeste 0 -- -- 69
2020-01-16 09:00:00 6.1 7 Noroeste 18 Noroeste 0 -- -- 78
2020-01-16 08:00:00 5.7 11 Noroeste 18 Noroeste 0 -- -- 80
2020-01-16 07:00:00 5.9 5 Oeste 16 Noroeste 0 -- -- 79
2020-01-16 06:00:00 5.6 3 Norte 10 Oeste 0 -- -- 81
2020-01-16 05:00:00 6.2 2 Este 15 Noroeste 0 -- -- 79
2020-01-16 04:00:00 7 6 Noroeste 11 Norte 0 -- -- 78
2020-01-16 03:00:00 8.8 8 Oeste 22 Noroeste 0 -- -- 69
2020-01-16 02:00:00 7 3 Noroeste 18 Noroeste 0 -- -- 77
2020-01-16 01:00:00 7.4 2 Oeste 9 Nordeste 0 -- -- 77
2020-01-16 00:00:00 7.9 4 Norte 12 Oeste 0 -- -- 75
2020-01-15 23:00:00 9 6 Noroeste 12 Noroeste 0 -- -- 73
2020-01-15 22:00:00 9.2 3 Este 18 Noroeste 0 -- -- 68
2020-01-15 21:00:00 11.1 9 Noroeste 21 Noroeste 0 -- -- 62
2020-01-15 20:00:00 10.9 10 Noroeste 20 Norte 0 -- -- 62
2020-01-15 19:00:00 11.6 12 Noroeste 24 Noroeste 0 -- -- 59
2020-01-15 18:00:00 13.1 18 Noroeste 33 Oeste 0 -- -- 55
2020-01-15 17:00:00 15.1 19 Noroeste 34 Noroeste 0 -- -- 48
2020-01-15 16:00:00 15.9 18 Noroeste 38 Noroeste 0 -- -- 45
2020-01-15 15:00:00 16.4 21 Noroeste 43 Oeste 0 -- -- 39
2020-01-15 14:00:00 16.1 13 Oeste 25 Oeste 0 -- -- 41
2020-01-15 13:00:00 14.1 13 Oeste 32 Oeste 0 -- -- 46
2020-01-15 12:00:00 13.6 8 Oeste 16 Noroeste 0 -- -- 51
2020-01-15 11:00:00 9.6 12 Noroeste 24 Noroeste 0 -- -- 61
2020-01-15 10:00:00 8 14 Noroeste 22 Noroeste 0 -- -- 66
2020-01-15 09:00:00 5.7 11 Noroeste 21 Norte 0 -- -- 70
2020-01-15 08:00:00 6.1 11 Noroeste 20 Noroeste 0 -- -- 69
2020-01-15 07:00:00 7.7 12 Noroeste 23 Oeste 0 -- -- 64
2020-01-15 06:00:00 6.8 9 Noroeste 24 Noroeste 0 -- -- 64
2020-01-15 05:00:00 6.7 17 Noroeste 29 Noroeste 0 -- -- 61
2020-01-15 04:00:00 5.6 18 Noroeste 31 Noroeste 0 -- -- 62
2020-01-15 03:00:00 6.1 16 Noroeste 30 Oeste 0 -- -- 61
2020-01-15 02:00:00 5.9 10 Noroeste 18 Noroeste 0 -- -- 63
2020-01-15 01:00:00 6.2 12 Noroeste 22 Noroeste 0 -- -- 61
2020-01-15 00:00:00 6.7 11 Noroeste 23 Noroeste 0 -- -- 58
2020-01-14 23:00:00 4.1 6 Oeste 18 Noroeste 0 -- -- 66
2020-01-14 22:00:00 5.1 7 Oeste 19 Noroeste 0 -- -- 63
2020-01-14 21:00:00 4.7 3 Norte 6 Norte 0 -- -- 59
2020-01-14 20:00:00 6 0 Calma 8 Nordeste 0 -- -- 56
2020-01-14 19:00:00 8 4 Norte 8 Sur 0 -- -- 54
2020-01-14 18:00:00 12.2 5 Sudeste 12 Sudeste 0 -- -- 46
2020-01-14 17:00:00 16.5 6 Sudeste 12 Sudeste 0 -- -- 34
2020-01-14 16:00:00 16.8 6 Sur 17 Sur 0 -- -- 27
2020-01-14 15:00:00 16.7 5 Sudeste 12 Sudeste 0 -- -- 23
2020-01-14 14:00:00 16.3 4 Sudoeste 9 Sudoeste 0 -- -- 22
2020-01-14 13:00:00 14.6 5 Sudoeste 9 Oeste 0 -- -- 23
2020-01-14 12:00:00 12 4 Oeste 13 Noroeste 0 -- -- 26
2020-01-14 11:00:00 7.5 8 Noroeste 21 Noroeste 0 -- -- 34
2020-01-14 10:00:00 4.4 15 Noroeste 22 Noroeste 0 -- -- 36
2020-01-14 09:00:00 1 4 Nordeste 8 Noroeste 0 -- -- 42
2020-01-14 08:00:00 -0.7 5 Norte 12 Norte 0 -- -- 49
2020-01-14 07:00:00 0.4 5 Nordeste 18 Oeste 0 -- -- 45
2020-01-14 06:00:00 3.7 5 Oeste 19 Noroeste 0 -- -- 39
2020-01-14 05:00:00 4.6 12 Noroeste 22 Norte 0 -- -- 38
2020-01-14 04:00:00 5.3 12 Noroeste 23 Noroeste 0 -- -- 39
2020-01-14 03:00:00 6.1 16 Noroeste 26 Noroeste 0 -- -- 36
2020-01-14 02:00:00 3.8 5 Noroeste 11 Oeste 0 -- -- 46
2020-01-14 01:00:00 5.6 6 Noroeste 19 Noroeste 0 -- -- 44
2020-01-14 00:00:00 6.6 14 Noroeste 21 Noroeste 0 -- -- 43
2020-01-13 23:00:00 7.3 11 Noroeste 27 Noroeste 0 -- -- 42
2020-01-13 22:00:00 8.5 15 Noroeste 32 Noroeste 0 -- -- 39
2020-01-13 21:00:00 9.1 15 Noroeste 24 Noroeste 0 -- -- 34
2020-01-13 20:00:00 10.3 17 Noroeste 27 Noroeste 0 -- -- 31
2020-01-13 19:00:00 10.8 11 Noroeste 18 Noroeste 0 -- -- 31
2020-01-13 18:00:00 12.2 7 Noroeste 17 Oeste 0 -- -- 29
2020-01-13 17:00:00 14.3 5 Noroeste 27 Oeste 0 -- -- 26
2020-01-13 16:00:00 15.4 11 Oeste 22 Noroeste 0 -- -- 26
2020-01-13 15:00:00 15.3 10 Oeste 24 Oeste 0 -- -- 23
2020-01-13 14:00:00 15.6 10 Noroeste 22 Noroeste 0 -- -- 24
2020-01-13 13:00:00 13.8 18 Noroeste 25 Noroeste 0 -- -- 29
2020-01-13 12:00:00 12.7 11 Noroeste 23 Noroeste 0 -- -- 26
2020-01-13 11:00:00 9 10 Noroeste 21 Noroeste 0 -- -- 34
2020-01-13 10:00:00 4.7 14 Noroeste 24 Oeste 0 -- -- 40
2020-01-13 09:00:00 1.9 14 Noroeste 28 Noroeste 0 -- -- 47
2020-01-13 08:00:00 1.6 12 Noroeste 27 Noroeste 0 -- -- 47
2020-01-13 07:00:00 1.2 7 Noroeste 20 Noroeste 0 -- -- 49
2020-01-13 06:00:00 1.7 14 Noroeste 27 Noroeste 0 -- -- 47
2020-01-13 05:00:00 1.5 14 Noroeste 24 Noroeste 0 -- -- 49
2020-01-13 04:00:00 1.7 9 Noroeste 21 Noroeste 0 -- -- 49
2020-01-13 03:00:00 1.7 12 Noroeste 21 Noroeste 0 -- -- 52
2020-01-13 02:00:00 2 9 Noroeste 17 Noroeste 0 -- -- 54
2020-01-13 01:00:00 1.7 6 Noroeste 12 Noroeste 0 -- -- 57
2020-01-13 00:00:00 1.1 4 Noroeste 8 Noroeste 0 -- -- 63
2020-01-12 23:00:00 1.5 3 Nordeste 5 Norte 0 -- -- 64
2020-01-12 22:00:00 2.4 0 Calma 6 Nordeste 0 -- -- 62
2020-01-12 21:00:00 3.3 3 Noroeste 6 Oeste 0 -- -- 60
2020-01-12 20:00:00 4.9 3 Nordeste 8 Nordeste 0 -- -- 54
2020-01-12 19:00:00 6.4 6 Nordeste 8 Nordeste 0 -- -- 49
2020-01-12 18:00:00 10.8 2 Sudeste 14 Sudeste 0 -- -- 38
2020-01-12 17:00:00 14 8 Sur 21 Sudeste 0 -- -- 30
2020-01-12 16:00:00 14.6 12 Sur 22 Sudeste 0 -- -- 26
2020-01-12 15:00:00 15.6 8 Sur 16 Sudeste 0 -- -- 23
2020-01-12 14:00:00 14.5 6 Sudeste 14 Sudeste 0 -- -- 25
2020-01-12 13:00:00 14.2 4 Sur 8 Sur 0 -- -- 26
2020-01-12 12:00:00 12.1 3 Sudoeste 8 Sur 0 -- -- 31
2020-01-12 11:00:00 9.7 3 Oeste 12 Noroeste 0 -- -- 34
2020-01-12 10:00:00 5.4 8 Noroeste 18 Noroeste 0 -- -- 42
2020-01-12 09:00:00 1.7 8 Noroeste 17 Noroeste 0 -- -- 53
2020-01-12 08:00:00 -0.8 3 Norte 8 Norte 0 -- -- 63
2020-01-12 07:00:00 -0.3 5 Norte 15 Noroeste 0 -- -- 62
2020-01-12 06:00:00 0.8 5 Norte 10 Norte 0 -- -- 59
2020-01-12 05:00:00 0.1 5 Norte 9 Norte 0 -- -- 63
2020-01-12 04:00:00 0.7 4 Nordeste 14 Noroeste 0 -- -- 62
2020-01-12 03:00:00 1.3 4 Norte 16 Noroeste 0 -- -- 63
2020-01-12 02:00:00 3 8 Noroeste 14 Oeste 0 -- -- 57
2020-01-12 01:00:00 3.5 8 Oeste 15 Noroeste 0 -- -- 58
2020-01-12 00:00:00 2.6 7 Noroeste 15 Noroeste 0 -- -- 67
2020-01-11 23:00:00 2.5 0 Calma 7 Norte 0 -- -- 74
2020-01-11 22:00:00 3 0 Calma 6 Norte 0 -- -- 73
2020-01-11 21:00:00 4.2 3 Nordeste 8 Nordeste 0 -- -- 68
2020-01-11 20:00:00 5.6 5 Nordeste 24 Sur 0 -- -- 63
2020-01-11 19:00:00 -- -- -- -- -- 0 -- -- --
2020-01-11 18:00:00 -- -- -- -- -- 0 -- -- --
2020-01-11 17:00:00 -- -- -- -- -- 0 -- -- --
2020-01-11 16:00:00 -- -- -- -- -- 0 -- -- --
2020-01-11 15:00:00 -- -- -- -- -- 0 -- -- --
2020-01-11 14:00:00 -- -- -- -- -- 0 -- -- --
2020-01-11 13:00:00 -- -- -- -- -- 0 -- -- --
2020-01-11 12:00:00 -- -- -- -- -- 0 -- -- --
2020-01-11 11:00:00 -- -- -- -- -- 0 -- -- --
2020-01-11 10:00:00 -- -- -- -- -- 0 -- -- --
2020-01-11 09:00:00 2 4 Nordeste 8 Nordeste 0 -- -- 78
2020-01-11 08:00:00 1.9 2 Norte 7 Norte 0 -- -- 77
2020-01-11 07:00:00 1.8 5 Nordeste 8 Nordeste 0 -- -- 77
2020-01-11 06:00:00 2.2 4 Norte 9 Norte 0 -- -- 76
2020-01-11 05:00:00 2.1 4 Nordeste 8 Norte 0 -- -- 76
2020-01-11 04:00:00 2.8 3 Norte 17 Oeste 0 -- -- 73
2020-01-11 03:00:00 5.1 6 Noroeste 21 Noroeste 0 -- -- 64
2020-01-11 02:00:00 4.5 0 Calma 14 Norte 0 -- -- 66
2020-01-11 01:00:00 5.1 3 Noroeste 13 Noroeste 0 -- -- 66
2020-01-11 00:00:00 5.8 4 Sudeste 13 Oeste 0 -- -- 62
2020-01-10 23:00:00 7.2 7 Noroeste 15 Noroeste 0 -- -- 58
2020-01-10 22:00:00 6.9 6 Noroeste 13 Sudoeste 0 -- -- 58
2020-01-10 21:00:00 8.8 7 Noroeste 22 Norte 0 -- -- 51
2020-01-10 20:00:00 9.1 7 Norte 29 Norte 0 -- -- 50
2020-01-10 19:00:00 10 16 Norte 31 Norte 0 -- -- 47
2020-01-10 18:00:00 10.4 8 Norte 20 Noroeste 0 -- -- 47
2020-01-10 17:00:00 11.2 13 Norte 33 Noroeste 0 -- -- 44
2020-01-10 16:00:00 12.3 15 Norte 35 Norte 0 -- -- 40
2020-01-10 15:00:00 12.6 17 Norte 39 Noroeste 0 -- -- 40
2020-01-10 14:00:00 13.3 17 Norte 37 Nordeste 0 -- -- 38
2020-01-10 13:00:00 13.1 13 Noroeste 42 Noroeste 0 -- -- 39
2020-01-10 12:00:00 11.6 18 Noroeste 52 Norte 0 -- -- 43
2020-01-10 11:00:00 11.2 18 Noroeste 36 Noroeste 0 -- -- 43
2020-01-10 10:00:00 10.7 7 Noroeste 20 Noroeste 0 -- -- 51
2020-01-10 09:00:00 7.8 5 Oeste 27 Norte 0 -- -- 65
2020-01-10 08:00:00 9.5 16 Norte 33 Norte 0 -- -- 59
2020-01-10 07:00:00 7.6 9 Oeste 16 Oeste 0 -- -- 68
2020-01-10 06:00:00 8.2 9 Noroeste 21 Noroeste 0 -- -- 67
2020-01-10 05:00:00 8.6 9 Noroeste 23 Noroeste 0 -- -- 65
2020-01-10 04:00:00 6.4 3 Noroeste 11 Oeste 0 -- -- 78
2020-01-10 03:00:00 5.4 5 Norte 10 Nordeste 0 -- -- 80
2020-01-10 02:00:00 4.8 5 Nordeste 9 Nordeste 0 -- -- 83
2020-01-10 01:00:00 5.1 3 Este 9 Noroeste 0 -- -- 81
2020-01-10 00:00:00 6.4 6 Oeste 18 Noroeste 0 -- -- 78
2020-01-09 23:00:00 5.1 0 Calma 8 Norte 0 -- -- 86
2020-01-09 22:00:00 5.3 4 Nordeste 7 Este 0 -- -- 85
2020-01-09 21:00:00 6.3 2 Norte 10 Este 0 -- -- 80
2020-01-09 20:00:00 7.3 3 Nordeste 8 Nordeste 0 -- -- 79
2020-01-09 19:00:00 8.3 4 Noroeste 10 Sudeste 0 -- -- 77
2020-01-09 18:00:00 10.9 6 Sudeste 15 Sudeste 0 -- -- 68
2020-01-09 17:00:00 14.1 8 Sudeste 15 Sudeste 0 -- -- 56
2020-01-09 16:00:00 14.9 8 Sur 15 Sur 0 -- -- 50
2020-01-09 15:00:00 15 9 Sur 17 Sur 0 -- -- 47
2020-01-09 14:00:00 14.3 8 Sur 15 Sur 0 -- -- 47
2020-01-09 13:00:00 14 5 Sudoeste 9 Sudoeste 0 -- -- 50
2020-01-09 12:00:00 10.9 3 Sudoeste 13 Noroeste 0 -- -- 61
2020-01-09 11:00:00 7.1 12 Noroeste 18 Noroeste 0 -- -- 74
2020-01-09 10:00:00 4.9 10 Noroeste 24 Oeste 0 -- -- 81
2020-01-09 09:00:00 2.9 8 Noroeste 20 Noroeste 0 -- -- 87
2020-01-09 08:00:00 2.4 5 Noroeste 15 Noroeste 0 -- -- 89
2020-01-09 07:00:00 2.8 9 Noroeste 15 Noroeste 0 -- -- 90
2020-01-09 06:00:00 2.7 6 Noroeste 13 Noroeste 0 -- -- 91
2020-01-09 05:00:00 2.3 4 Noroeste 12 Noroeste 0 -- -- 92
2020-01-09 04:00:00 2.5 4 Noroeste 9 Noroeste 0 -- -- 93
2020-01-09 03:00:00 2.5 3 Norte 6 Oeste 0 -- -- 94
2020-01-09 02:00:00 2.8 3 Nordeste 8 Oeste 0 -- -- 94
2020-01-09 01:00:00 3 2 Norte 5 Oeste 0 -- -- 93
2020-01-09 00:00:00 3.9 0 Calma 5 Oeste 0 -- -- 93
2020-01-08 23:00:00 4.2 0 Calma 6 Noroeste 0 -- -- 92
2020-01-08 22:00:00 4.7 2 Nordeste 4 Norte 0 -- -- 91
2020-01-08 21:00:00 5.7 2 Norte 5 Nordeste 0 -- -- 90
2020-01-08 20:00:00 6.6 0 Calma 8 Nordeste 0 -- -- 87
2020-01-08 19:00:00 7.8 4 Norte 6 Norte 0 -- -- 83
2020-01-08 18:00:00 9.9 3 Sudeste 13 Sudeste 0 -- -- 77
2020-01-08 17:00:00 12.5 7 Sur 14 Sudeste 0 -- -- 69
2020-01-08 16:00:00 13 5 Sur 18 Sudeste 0 -- -- 68
2020-01-08 15:00:00 11.3 10 Sur 24 Sudeste 0 -- -- 75
2020-01-08 14:00:00 12 10 Sudeste 28 Sudeste 0 -- -- 69
2020-01-08 13:00:00 12.6 14 Sudeste 24 Sudeste 0 -- -- 53
2020-01-08 12:00:00 13.9 9 Sudeste 14 Sudeste 0 -- -- 42
2020-01-08 11:00:00 13.1 0 Calma 5 Oeste 0 -- -- 42
2020-01-08 10:00:00 11.1 0 Calma 6 Oeste 0 -- -- 46
2020-01-08 09:00:00 5.9 4 Noroeste 8 Oeste 0 -- -- 64
2020-01-08 08:00:00 4.9 3 Norte 6 Norte 0 -- -- 66
2020-01-08 07:00:00 6 4 Noroeste 11 Noroeste 0 -- -- 59
2020-01-08 06:00:00 6.1 5 Norte 22 Noroeste 0 -- -- 56
2020-01-08 05:00:00 4.9 5 Norte 9 Nordeste 0 -- -- 57
2020-01-08 04:00:00 4.7 3 Norte 7 Noroeste 0 -- -- 54
2020-01-08 03:00:00 4.2 3 Norte 7 Norte 0 -- -- 56
2020-01-08 02:00:00 4.6 3 Norte 15 Noroeste 0 -- -- 58
2020-01-08 01:00:00 4.9 5 Norte 14 Oeste 0 -- -- 62
2020-01-08 00:00:00 4.3 0 Calma 7 Oeste 0 -- -- 70
2020-01-07 23:00:00 4.3 3 Noroeste 9 Oeste 0 -- -- 78
2020-01-07 22:00:00 4.7 2 Norte 4 Norte 0 -- -- 78
2020-01-07 21:00:00 5.9 3 Noroeste 8 Nordeste 0 -- -- 75
2020-01-07 20:00:00 7.1 2 Norte 6 Nordeste 0 -- -- 70
2020-01-07 19:00:00 9 3 Noroeste 7 Sudeste 0 -- -- 64
2020-01-07 18:00:00 12 5 Sudeste 15 Sudeste 0 -- -- 54
2020-01-07 17:00:00 15.8 9 Sudeste 18 Sur 0 -- -- 43
2020-01-07 16:00:00 17.8 7 Sur 15 Sudeste 0 -- -- 37
2020-01-07 15:00:00 17.8 5 Sudeste 12 Sudeste 0 -- -- 30
2020-01-07 14:00:00 17.1 5 Sudeste 9 Sudeste 0 -- -- 32
2020-01-07 13:00:00 16.1 4 Sur 10 Sur 0 -- -- 35
2020-01-07 12:00:00 14.1 4 Sudeste 9 Este 0 -- -- 38
2020-01-07 11:00:00 12.3 2 Sur 5 Este 0 -- -- 41
2020-01-07 10:00:00 8.1 3 Sur 19 Noroeste 0 -- -- 51
2020-01-07 09:00:00 3.8 5 Norte 19 Noroeste 0 -- -- 62
2020-01-07 08:00:00 2.2 3 Noroeste 7 Noroeste 0 -- -- 68
2020-01-07 07:00:00 1.9 0 Calma 7 Noroeste 0 -- -- 71
2020-01-07 06:00:00 2.1 0 Calma 7 Norte 0 -- -- 73
2020-01-07 05:00:00 2.7 0 Calma 7 Norte 0 -- -- 71
2020-01-07 04:00:00 3 2 Noroeste 9 Oeste 0 -- -- 72
2020-01-07 03:00:00 2.4 2 Noroeste 6 Nordeste 0 -- -- 79
2020-01-07 02:00:00 2.2 4 Oeste 6 Este 0 -- -- 82
2020-01-07 01:00:00 2.8 0 Calma 6 Norte 0 -- -- 83
2020-01-07 00:00:00 3.6 3 Norte 6 Norte 0 -- -- 86
2020-01-06 23:00:00 3.7 3 Norte 6 Oeste 0 -- -- 88
2020-01-06 22:00:00 4.4 2 Nordeste 5 Oeste 0 -- -- 87
2020-01-06 21:00:00 5.2 0 Calma 6 Nordeste 0 -- -- 84
2020-01-06 20:00:00 6.3 4 Norte 7 Nordeste 0 -- -- 82
2020-01-06 19:00:00 7.9 3 Noroeste 5 Este 0 -- -- 76
2020-01-06 18:00:00 10.6 3 Este 16 Sudeste 0 -- -- 68
2020-01-06 17:00:00 13.8 9 Sudeste 19 Sur 0 -- -- 56
2020-01-06 16:00:00 14.8 12 Sudeste 21 Sudeste 0 -- -- 50
2020-01-06 15:00:00 15.5 10 Sudeste 18 Sudeste 0 -- -- 44
2020-01-06 14:00:00 15.7 5 Sudeste 13 Sudeste 0 -- -- 39
2020-01-06 13:00:00 13.9 5 Sur 10 Sur 0 -- -- 42
2020-01-06 12:00:00 12.4 4 Sur 8 Sudoeste 0 -- -- 43
2020-01-06 11:00:00 9.8 4 Sudeste 10 Este 0 -- -- 50
2020-01-06 10:00:00 8 0 Calma 6 Noroeste 0 -- -- 56